Time;durP1;ratioP1;P1;durP2;ratioP2;P2;SDS_P1;SDS_P2;PMS_P1;PMS_P2;Temp;Humidity;BMP_temperature;BMP_pressure;BME280_temperature;BME280_humidity;BME280_pressure;Samples;Min_cycle;Max_cycle;Signal;HPM_P1;HPM_P2
2024/02/09 00:01:15;;;;;;;1999.90;999.90;;;;;;;2.91;79.44;95745.94;5134076;27;20514;-65
2024/02/09 00:03:43;;;;;;;1999.90;999.90;;;;;;;2.84;78.83;95752.97;5134084;28;20051;-64
2024/02/09 00:06:10;;;;;;;1999.90;999.90;;;;;;;2.83;78.52;95750.44;5134071;28;20126;-67
2024/02/09 00:08:40;;;;;;;1999.90;999.90;;;;;;;2.80;78.59;95751.31;5133899;28;20107;-65
2024/02/09 00:11:11;;;;;;;1999.90;999.90;;;;;;;2.83;78.39;95748.69;5133995;27;20047;-63
2024/02/09 00:13:42;;;;;;;1999.90;999.90;;;;;;;2.75;79.14;95746.28;5133879;28;20043;-64
2024/02/09 00:16:17;;;;;;;1999.90;999.90;;;;;;;2.63;79.13;95754.25;5133952;27;20047;-66
2024/02/09 00:18:44;;;;;;;1999.90;999.90;;;;;;;2.64;79.75;95753.34;5133860;28;20047;-64
2024/02/09 00:21:11;;;;;;;1999.90;999.90;;;;;;;2.63;80.00;95752.53;5133825;28;20082;-63
2024/02/09 00:23:38;;;;;;;1999.90;999.90;;;;;;;2.60;79.16;95747.41;5133874;28;20107;-65
2024/02/09 00:26:06;;;;;;;1999.90;999.90;;;;;;;2.52;78.79;95738.94;5134053;27;20043;-64
2024/02/09 00:28:33;;;;;;;1999.90;999.90;;;;;;;2.47;78.56;95745.94;5133805;28;20500;-64
2024/02/09 00:31:00;;;;;;;1999.90;999.90;;;;;;;2.44;79.31;95740.84;5133929;27;20039;-66
2024/02/09 00:33:29;;;;;;;1999.90;999.90;;;;;;;2.37;80.34;95742.66;5133741;27;20046;-65
2024/02/09 00:35:56;;;;;;;1999.90;999.90;;;;;;;2.38;81.81;95745.22;5133796;27;20628;-65
2024/02/09 00:38:23;;;;;;;1999.90;999.90;;;;;;;2.43;81.58;95747.72;5133670;27;20051;-65
2024/02/09 00:40:51;;;;;;;1999.90;999.90;;;;;;;2.45;80.94;95745.97;5137594;27;20404;-67
2024/02/09 00:43:22;;;;;;;1999.90;999.90;;;;;;;2.40;80.64;95743.47;5137696;27;20043;-63
2024/02/09 00:45:51;;;;;;;1999.90;999.90;;;;;;;2.37;81.72;95746.09;5137724;27;20466;-63
2024/02/09 00:48:18;;;;;;;1999.90;999.90;;;;;;;2.43;82.01;95752.88;5137556;27;20058;-66
2024/02/09 00:50:46;;;;;;;1999.90;999.90;;;;;;;2.47;81.43;95754.50;5137545;27;20049;-66
2024/02/09 00:53:13;;;;;;;1999.90;999.90;;;;;;;2.43;81.27;95752.00;5137473;27;20073;-65
2024/02/09 00:55:40;;;;;;;1999.90;999.90;;;;;;;2.48;80.43;95753.66;5137323;27;20047;-64
2024/02/09 00:58:07;;;;;;;1999.90;999.90;;;;;;;2.42;80.67;95750.31;5137429;27;20508;-65
2024/02/09 01:00:34;;;;;;;1999.90;999.90;;;;;;;2.41;80.12;95746.91;5137421;27;20051;-64
2024/02/09 01:03:02;;;;;;;1999.90;999.90;;;;;;;2.35;81.01;95747.03;5137363;27;20075;-64
2024/02/09 01:05:29;;;;;;;1999.90;999.90;;;;;;;2.34;82.27;95740.13;5137320;27;20055;-67
2024/02/09 01:07:58;;;;;;;1999.90;999.90;;;;;;;2.38;82.90;95739.22;5137209;27;20051;-63
2024/02/09 01:10:25;;;;;;;1999.90;999.90;;;;;;;2.38;82.59;95742.63;5137314;27;20134;-67
2024/02/09 02:46:13;;;;;;;1999.90;999.90;;;;;;;1.97;82.53;95711.53;5135483;27;20043;-64
2024/02/09 03:05:14;;;;;;;1999.90;999.90;;;;;;;1.46;84.01;95738.97;5134997;27;20073;-64
2024/02/09 03:07:42;;;;;;;1999.90;999.90;;;;;;;1.46;84.28;95744.13;5134870;27;20071;-63
2024/02/09 03:10:09;;;;;;;1999.90;999.90;;;;;;;1.47;84.83;95742.41;5134796;27;20051;-66
2024/02/09 03:12:37;;;;;;;1999.90;999.90;;;;;;;1.41;85.16;95750.25;5134651;27;20047;-66
2024/02/09 03:15:07;;;;;;;1999.90;999.90;;;;;;;1.45;85.36;95749.31;5134891;27;20528;-64
2024/02/09 03:17:36;;;;;;;1999.90;999.90;;;;;;;1.44;84.86;95745.03;5134777;27;20046;-63
2024/02/09 03:20:04;;;;;;;1999.90;999.90;;;;;;;1.42;84.79;95755.38;5134708;27;20051;-66
2024/02/09 03:22:31;;;;;;;1999.90;999.90;;;;;;;1.36;84.70;95734.84;5134512;27;20484;-63
2024/02/09 03:25:02;;;;;;;1999.90;999.90;;;;;;;1.47;84.48;95748.41;5134465;27;20074;-63
2024/02/09 03:27:32;;;;;;;1999.90;999.90;;;;;;;1.46;85.02;95748.44;5134504;27;20377;-66
2024/02/09 03:30:00;;;;;;;1999.90;999.90;;;;;;;1.53;85.69;95746.63;5134429;27;20053;-65
2024/02/09 03:32:29;;;;;;;1999.90;999.90;;;;;;;1.58;85.61;95745.69;5134262;27;20055;-65
2024/02/09 03:34:58;;;;;;;1999.90;999.90;;;;;;;1.63;84.52;95748.19;5134449;27;20563;-65
2024/02/09 03:37:26;;;;;;;1999.90;999.90;;;;;;;1.60;84.11;95748.25;5134431;27;20054;-65
2024/02/09 03:39:53;;;;;;;1999.90;999.90;;;;;;;1.55;83.15;95744.88;5134419;27;20070;-66
2024/02/09 03:42:21;;;;;;;1999.90;999.90;;;;;;;1.56;83.09;95754.31;5134401;27;20039;-65
2024/02/09 03:44:49;;;;;;;1999.90;999.90;;;;;;;1.49;83.28;95751.84;5134191;27;20385;-66
2024/02/09 03:47:17;;;;;;;1999.90;999.90;;;;;;;1.44;84.43;95756.19;5134236;27;20051;-67
2024/02/09 03:49:47;;;;;;;1999.90;999.90;;;;;;;1.45;85.28;95757.06;5134092;27;20436;-66
2024/02/09 03:52:19;;;;;;;1999.90;999.90;;;;;;;1.41;86.15;95753.66;5134018;27;20058;-67
2024/02/09 03:54:46;;;;;;;1999.90;999.90;;;;;;;1.40;85.96;95757.13;5134020;27;20101;-64
2024/02/09 03:57:13;;;;;;;1999.90;999.90;;;;;;;1.45;85.65;95760.50;5133725;27;20050;-67
2024/02/09 03:59:42;;;;;;;1999.90;999.90;;;;;;;1.48;84.44;95765.56;5134058;27;20047;-67
2024/02/09 04:02:09;;;;;;;1999.90;999.90;;;;;;;1.39;84.24;95774.28;5133992;28;20043;-63
2024/02/09 04:04:36;;;;;;;1999.90;999.90;;;;;;;1.31;85.24;95777.84;5134059;27;20097;-65
2024/02/09 04:07:05;;;;;;;1999.90;999.90;;;;;;;1.30;85.80;95781.31;5133890;28;20508;-66
2024/02/09 04:09:34;;;;;;;1999.90;999.90;;;;;;;1.25;85.69;95783.94;5134021;28;20050;-65
2024/02/09 04:12:01;;;;;;;1999.90;999.90;;;;;;;1.29;85.54;95777.03;5133836;28;20089;-63
2024/02/09 04:14:28;;;;;;;1999.90;999.90;;;;;;;1.24;85.28;95779.66;5137638;27;20043;-65
2024/02/09 04:16:56;;;;;;;1999.90;999.90;;;;;;;1.25;85.25;95773.63;5138332;27;20043;-65
2024/02/09 04:19:24;;;;;;;1999.90;999.90;;;;;;;1.25;85.03;95774.50;5138171;27;20047;-64
2024/02/09 04:21:51;;;;;;;1999.90;999.90;;;;;;;1.21;84.60;95771.97;5138119;27;20130;-66
2024/02/09 04:24:23;;;;;;;1999.90;999.90;;;;;;;1.11;85.37;95766.94;5138098;27;20084;-67
2024/02/09 04:26:52;;;;;;;1999.90;999.90;;;;;;;1.14;85.78;95773.78;5138040;27;20043;-65
2024/02/09 04:29:20;;;;;;;1999.90;999.90;;;;;;;1.23;85.76;95772.78;5137919;27;20488;-64
2024/02/09 04:31:47;;;;;;;1999.90;999.90;;;;;;;1.11;84.85;95774.66;5137839;27;20498;-64
2024/02/09 04:34:15;;;;;;;1999.90;999.90;;;;;;;1.10;84.33;95772.97;5137819;27;20126;-63
2024/02/09 04:36:43;;;;;;;1999.90;999.90;;;;;;;1.06;84.78;95776.47;5137896;27;20047;-66
2024/02/09 04:39:11;;;;;;;1999.90;999.90;;;;;;;0.95;85.57;95774.00;5137681;27;20047;-63
2024/02/09 04:41:38;;;;;;;1999.90;999.90;;;;;;;0.92;86.43;95780.91;5137621;27;20514;-66
2024/02/09 04:44:07;;;;;;;1999.90;999.90;;;;;;;0.97;86.78;95771.41;5137671;27;20043;-63
2024/02/09 04:46:35;;;;;;;1999.90;999.90;;;;;;;0.97;86.96;95774.81;5137742;27;20047;-63
2024/02/09 04:49:22;;;;;;;1999.90;999.90;;;;;;;1.03;87.24;95773.06;5137470;27;20085;-66
2024/02/09 04:51:49;;;;;;;1999.90;999.90;;;;;;;1.05;86.94;95773.91;5137676;27;20047;-63
2024/02/09 04:54:16;;;;;;;1999.90;999.90;;;;;;;1.10;86.33;95777.25;5137521;27;20078;-65
2024/02/09 04:56:43;;;;;;;1999.90;999.90;;;;;;;1.07;85.69;95770.44;5137194;27;20043;-65
2024/02/09 04:59:12;;;;;;;1999.90;999.90;;;;;;;1.07;85.19;95767.00;5137354;27;20403;-64
2024/02/09 05:01:41;;;;;;;1999.90;999.90;;;;;;;1.07;84.72;95773.00;5137340;27;20047;-66
2024/02/09 05:04:10;;;;;;;1999.90;999.90;;;;;;;1.02;85.27;95769.63;5137185;27;20101;-66
2024/02/09 05:06:38;;;;;;;1999.90;999.90;;;;;;;1.00;85.77;95769.63;5137235;27;20044;-66
2024/02/09 05:09:06;;;;;;;1999.90;999.90;;;;;;;0.96;86.40;95775.72;5137142;27;20047;-64
2024/02/09 05:11:36;;;;;;;1999.90;999.90;;;;;;;0.99;88.44;95778.25;5137163;27;20129;-65
2024/02/09 05:14:05;;;;;;;1999.90;999.90;;;;;;;0.97;87.65;95779.16;5137398;27;20047;-66
2024/02/09 05:16:35;;;;;;;1999.90;999.90;;;;;;;0.99;87.62;95782.53;5137016;27;20396;-67
2024/02/09 05:19:02;;;;;;;1999.90;999.90;;;;;;;0.93;87.70;95798.94;5137109;27;20542;-65
2024/02/09 05:21:29;;;;;;;1999.90;999.90;;;;;;;0.90;87.95;95803.28;5137011;27;20043;-65
2024/02/09 05:23:56;;;;;;;1999.90;999.90;;;;;;;0.99;87.19;95806.59;5136801;27;20051;-63
2024/02/09 05:26:23;;;;;;;1999.90;999.90;;;;;;;1.03;86.34;95810.00;5136108;27;20475;-63
2024/02/09 05:28:51;;;;;;;1999.90;999.90;;;;;;;0.94;86.65;95808.38;5136844;27;20079;-63
2024/02/09 05:31:21;;;;;;;1999.90;999.90;;;;;;;0.94;86.87;95810.97;5136761;27;20047;-62
2024/02/09 05:33:51;;;;;;;1999.90;999.90;;;;;;;1.04;87.04;95823.69;5136655;27;20051;-65
2024/02/09 05:36:22;;;;;;;1999.90;999.90;;;;;;;0.97;86.93;95820.34;5136726;27;20043;-63
2024/02/09 05:38:50;;;;;;;1999.90;999.90;;;;;;;0.99;87.61;95824.63;5136560;27;20130;-66
2024/02/09 05:41:17;;;;;;;1999.90;999.90;;;;;;;1.04;88.55;95822.00;5136607;27;20054;-64
2024/02/09 05:43:45;;;;;;;1999.90;999.90;;;;;;;1.17;88.93;95816.69;5136499;27;20108;-64
2024/02/09 05:46:12;;;;;;;1999.90;999.90;;;;;;;1.20;88.22;95821.81;5136350;27;20571;-64
2024/02/09 05:48:40;;;;;;;1999.90;999.90;;;;;;;1.31;87.87;95824.25;5136494;27;20043;-64
2024/02/09 05:51:13;;;;;;;1999.90;999.90;;;;;;;1.42;86.45;95829.25;5136446;27;20051;-67
2024/02/09 05:53:40;;;;;;;1999.90;999.90;;;;;;;1.45;85.79;95824.06;5136222;27;20043;-66
2024/02/09 05:56:15;;;;;;;1999.90;999.90;;;;;;;1.44;86.00;95832.69;5136170;27;20043;-63
2024/02/09 05:58:42;;;;;;;1999.90;999.90;;;;;;;1.47;86.37;95835.19;5136159;27;20126;-66
2024/02/09 06:01:09;;;;;;;1999.90;999.90;;;;;;;1.64;87.32;95830.69;5136258;27;20118;-66
2024/02/09 06:03:38;;;;;;;1999.90;999.90;;;;;;;1.84;87.02;95836.44;5136255;27;20039;-64
2024/02/09 06:06:06;;;;;;;1999.90;999.90;;;;;;;2.67;85.62;95840.28;5136068;27;20508;-65
2024/02/09 06:08:36;;;;;;;1999.90;999.90;;;;;;;4.08;81.29;95839.13;5136002;27;20108;-65
2024/02/09 06:11:03;;;;;;;1999.90;999.90;;;;;;;5.57;73.40;95849.94;5135882;27;20058;-64
2024/02/09 06:13:30;;;;;;;1999.90;999.90;;;;;;;6.89;65.85;95872.72;5135766;27;20439;-67
2024/02/09 06:15:58;;;;;;;1999.90;999.90;;;;;;;8.16;60.90;95874.25;5136018;27;20488;-66
2024/02/09 06:18:25;;;;;;;1999.90;999.90;;;;;;;9.42;57.73;95883.09;5135904;27;20131;-65
2024/02/09 06:20:53;;;;;;;1999.90;999.90;;;;;;;10.68;53.00;95885.19;5135689;27;20412;-63
2024/02/09 06:23:21;;;;;;;1999.90;999.90;;;;;;;11.86;48.91;95862.63;5135678;27;20054;-65
2024/02/09 06:25:50;;;;;;;1999.90;999.90;;;;;;;12.98;46.12;95865.28;5135983;27;20043;-65
2024/02/09 06:28:17;;;;;;;1999.90;999.90;;;;;;;13.81;43.87;95860.41;5135596;27;20047;-68
2024/02/09 06:30:47;;;;;;;1999.90;999.90;;;;;;;14.86;42.53;95868.69;5135548;27;20100;-66
2024/02/09 06:33:16;;;;;;;1999.90;999.90;;;;;;;15.80;39.53;95862.41;5135440;27;20503;-66
2024/02/09 06:35:44;;;;;;;1999.90;999.90;;;;;;;16.56;38.55;95856.25;5135336;27;20051;-66
2024/02/09 06:38:11;;;;;;;1999.90;999.90;;;;;;;17.49;36.83;95852.97;5134931;27;20130;-63
2024/02/09 06:40:39;;;;;;;1999.90;999.90;;;;;;;18.32;35.22;95852.72;5135527;27;20123;-64
2024/02/09 06:43:08;;;;;;;1999.90;999.90;;;;;;;19.11;34.03;95849.94;5135424;27;20066;-66
2024/02/09 06:45:35;;;;;;;1999.90;999.90;;;;;;;19.66;32.99;95848.88;5135313;27;20078;-67
2024/02/09 06:48:03;;;;;;;1999.90;999.90;;;;;;;20.34;32.49;95852.78;5135244;27;20047;-68
2024/02/09 06:50:30;;;;;;;1999.90;999.90;;;;;;;21.15;31.27;95855.38;5135196;27;20074;-64
2024/02/09 06:52:57;;;;;;;1999.90;999.90;;;;;;;21.38;30.37;95855.06;5135368;27;20552;-65
2024/02/09 06:55:24;;;;;;;1999.90;999.90;;;;;;;21.42;30.04;95849.31;5135134;27;20437;-67
2024/02/09 06:57:51;;;;;;;1999.90;999.90;;;;;;;21.61;30.19;95852.91;5134815;27;20054;-66
2024/02/09 07:00:20;;;;;;;1999.90;999.90;;;;;;;22.15;29.51;95848.84;5134991;27;20047;-66
2024/02/09 07:02:50;;;;;;;1999.90;999.90;;;;;;;22.71;28.33;95852.31;5135013;27;20082;-65
2024/02/09 07:05:19;;;;;;;1999.90;999.90;;;;;;;23.26;27.64;95848.78;5134912;27;20484;-66
2024/02/09 07:07:49;;;;;;;1999.90;999.90;;;;;;;23.78;26.58;95850.63;5134914;27;20138;-64
2024/02/09 07:10:17;;;;;;;1999.90;999.90;;;;;;;24.23;26.37;95847.88;5134990;27;20051;-66
2024/02/09 07:12:45;;;;;;;1999.90;999.90;;;;;;;24.59;25.42;95842.28;5134705;27;20055;-66
2024/02/09 07:15:12;;;;;;;1999.90;999.90;;;;;;;25.03;25.73;95843.06;5134932;27;20047;-63
2024/02/09 07:17:41;;;;;;;1999.90;999.90;;;;;;;25.32;25.22;95841.72;5134701;27;20047;-67
2024/02/09 07:20:11;;;;;;;1999.90;999.90;;;;;;;25.77;24.84;95836.00;5134799;27;20497;-66
2024/02/09 07:22:39;;;;;;;1999.90;999.90;;;;;;;26.15;24.66;95839.88;5134591;27;20064;-66
2024/02/09 07:25:07;;;;;;;1999.90;999.90;;;;;;;26.21;24.11;95839.16;5134651;27;20051;-65
2024/02/09 07:27:34;;;;;;;1999.90;999.90;;;;;;;26.47;23.95;95840.75;5134466;27;20134;-66
2024/02/09 07:30:01;;;;;;;1999.90;999.90;;;;;;;26.86;23.71;95836.34;5134400;27;20051;-66
2024/02/09 07:32:28;;;;;;;1999.90;999.90;;;;;;;27.17;23.06;95835.47;5134606;27;20068;-65
2024/02/09 07:34:57;;;;;;;1999.90;999.90;;;;;;;27.37;22.71;95843.00;5134556;27;20047;-64
2024/02/09 07:37:24;;;;;;;1999.90;999.90;;;;;;;27.59;23.05;95840.44;5134375;27;20043;-67
2024/02/09 07:39:52;;;;;;;1999.90;999.90;;;;;;;27.90;23.12;95835.97;5134368;27;20488;-65
2024/02/09 07:42:20;;;;;;;1999.90;999.90;;;;;;;28.13;22.61;95841.25;5134422;27;20047;-65
2024/02/09 07:44:47;;;;;;;1999.90;999.90;;;;;;;27.17;23.14;95845.34;5134299;27;20043;-63
2024/02/09 07:47:14;;;;;;;1999.90;999.90;;;;;;;26.46;23.47;95839.91;5134023;27;20051;-65
2024/02/09 07:49:41;;;;;;;1999.90;999.90;;;;;;;26.94;23.02;95835.44;5134118;27;20098;-65
2024/02/09 07:52:09;;;;;;;1999.90;999.90;;;;;;;27.58;22.11;95849.53;5134004;27;20043;-64
2024/02/09 07:54:36;;;;;;;60.17;55.63;;;;;;;27.91;21.71;95845.69;5134070;27;20055;-66
2024/02/09 07:57:05;;;;;;;55.97;52.10;;;;;;;28.21;20.62;95848.38;5133829;27;20084;-67
2024/02/09 07:59:34;;;;;;;61.65;57.30;;;;;;;28.83;19.29;95830.09;5134203;27;20096;-66
2024/02/09 08:02:01;;;;;;;61.80;57.53;;;;;;;29.45;18.57;95843.09;5134306;27;20449;-63
2024/02/09 08:04:31;;;;;;;55.35;51.63;;;;;;;29.79;18.43;95842.53;5134015;27;20096;-66
2024/02/09 08:06:58;;;;;;;51.58;48.00;;;;;;;29.68;18.74;95844.75;5133974;27;20045;-66
2024/02/09 08:09:26;;;;;;;48.90;45.58;;;;;;;30.25;18.01;95843.84;5133977;27;20043;-64
2024/02/09 08:11:53;;;;;;;46.70;43.42;;;;;;;30.04;18.41;95839.34;5134001;27;20079;-67
2024/02/09 08:14:20;;;;;;;43.20;40.40;;;;;;;30.00;18.38;95836.22;5134010;27;20115;-64
2024/02/09 08:16:47;;;;;;;45.28;42.28;;;;;;;30.07;17.78;95837.09;5133869;27;20494;-67
2024/02/09 08:19:15;;;;;;;46.58;43.08;;;;;;;28.70;18.86;95835.31;5133969;27;20061;-67
2024/02/09 08:21:43;;;;;;;45.60;42.55;;;;;;;27.93;19.91;95830.25;5133910;27;20051;-63
2024/02/09 08:24:14;;;;;;;57.45;53.50;;;;;;;27.16;20.32;95831.13;5133781;27;20040;-65
2024/02/09 08:26:42;;;;;;;50.08;46.50;;;;;;;26.23;21.26;95816.56;5133839;27;20058;-65
2024/02/09 08:29:09;;;;;;;48.80;45.08;;;;;;;25.85;21.18;95817.22;5134058;27;20054;-67
2024/02/09 08:31:36;;;;;;;49.78;46.53;;;;;;;25.18;22.22;95826.34;5133781;27;20078;-66
2024/02/09 08:34:04;;;;;;;1999.90;999.90;;;;;;;23.91;23.22;95830.69;5133636;27;20055;-65
2024/02/09 08:36:31;;;;;;;1999.90;999.90;;;;;;;22.71;24.81;95823.00;5133680;27;20043;-65
2024/02/09 08:38:58;;;;;;;1999.90;999.90;;;;;;;22.04;25.82;95817.91;5133718;27;20043;-64
2024/02/09 08:41:25;;;;;;;1999.90;999.90;;;;;;;21.17;27.06;95827.69;5133873;27;20043;-64
2024/02/09 08:43:54;;;;;;;1999.90;999.90;;;;;;;20.63;27.87;95816.59;5133706;27;20446;-62
2024/02/09 08:46:22;;;;;;;1999.90;999.90;;;;;;;19.59;29.05;95821.22;5133715;27;20470;-65
2024/02/09 08:48:49;;;;;;;1999.90;999.90;;;;;;;19.38;29.28;95820.25;5133688;27;20085;-64
2024/02/09 08:51:16;;;;;;;1999.90;999.90;;;;;;;19.29;29.26;95813.91;5133595;27;20519;-63
2024/02/09 08:53:44;;;;;;;1999.90;999.90;;;;;;;19.24;29.69;95813.50;5133549;27;20051;-65
2024/02/09 08:56:11;;;;;;;1999.90;999.90;;;;;;;18.98;30.44;95813.84;5133444;27;20058;-64
2024/02/09 08:58:38;;;;;;;1999.90;999.90;;;;;;;18.73;30.27;95813.25;5133702;27;20055;-65
2024/02/09 09:01:06;;;;;;;1999.90;999.90;;;;;;;18.59;30.27;95808.22;5136284;27;20126;-64
2024/02/09 09:03:35;;;;;;;1999.90;999.90;;;;;;;18.42;31.77;95803.34;5137337;27;20050;-67
2024/02/09 09:06:03;;;;;;;1999.90;999.90;;;;;;;18.33;31.76;95795.31;5137258;27;20051;-64
2024/02/09 09:08:30;;;;;;;1999.90;999.90;;;;;;;18.34;31.76;95795.22;5137440;27;20108;-64
2024/02/09 09:10:57;;;;;;;1999.90;999.90;;;;;;;18.30;31.54;95788.47;5137311;27;20050;-63
2024/02/09 09:13:24;;;;;;;1999.90;999.90;;;;;;;18.27;32.87;95786.91;5136923;27;20051;-65
2024/02/09 09:15:51;;;;;;;1999.90;999.90;;;;;;;18.43;32.16;95785.66;5137197;27;20047;-64
2024/02/09 09:18:20;;;;;;;1999.90;999.90;;;;;;;18.62;31.15;95790.28;5137059;27;20043;-66
2024/02/09 09:20:48;;;;;;;1999.90;999.90;;;;;;;18.51;31.84;95793.00;5136967;27;20043;-67
2024/02/09 09:23:16;;;;;;;1999.90;999.90;;;;;;;18.27;30.83;95791.38;5136814;27;20496;-64
2024/02/09 09:25:43;;;;;;;1999.90;999.90;;;;;;;18.04;32.26;95796.69;5137135;27;20047;-64
2024/02/09 09:28:12;;;;;;;1999.90;999.90;;;;;;;18.16;31.83;95795.75;5136912;27;20142;-65
2024/02/09 09:30:39;;;;;;;1999.90;999.90;;;;;;;18.11;31.01;95792.59;5136921;27;20043;-66
2024/02/09 09:33:06;;;;;;;1999.90;999.90;;;;;;;18.16;32.56;95798.38;5136683;27;20093;-64
2024/02/09 09:35:34;;;;;;;1999.90;999.90;;;;;;;18.17;32.31;95794.75;5136794;27;20039;-63
2024/02/09 09:38:01;;;;;;;1999.90;999.90;;;;;;;18.11;33.48;95774.09;5136741;27;20134;-66
2024/02/09 09:40:34;;;;;;;1999.90;999.90;;;;;;;18.23;33.83;95774.91;5136828;27;20043;-67
2024/02/09 09:43:01;;;;;;;1999.90;999.90;;;;;;;18.48;32.67;95783.47;5136553;27;20077;-67
2024/02/09 09:45:29;;;;;;;1999.90;999.90;;;;;;;18.68;33.41;95788.94;5136781;27;20046;-63
2024/02/09 09:47:58;;;;;;;1999.90;999.90;;;;;;;18.63;33.26;95786.66;5136478;27;20082;-62
2024/02/09 09:50:26;;;;;;;1999.90;999.90;;;;;;;18.40;32.08;95775.31;5136457;27;20078;-65
2024/02/09 09:52:57;;;;;;;1999.90;999.90;;;;;;;17.85;33.65;95776.97;5136434;27;20043;-67
2024/02/09 09:55:26;;;;;;;;;;;;;;;17.62;33.90;95771.72;5136780;27;20567;-66
2024/02/09 09:57:54;;;;;;;1999.90;999.90;;;;;;;17.51;34.98;95777.00;5136128;27;19923;-65
2024/02/09 10:00:23;;;;;;;1999.90;999.90;;;;;;;17.35;35.62;95777.38;5136481;27;20050;-65
2024/02/09 10:02:51;;;;;;;1999.90;999.90;;;;;;;17.33;35.63;95779.31;5136167;27;20054;-67
2024/02/09 10:05:18;;;;;;;1999.90;999.90;;;;;;;17.24;35.60;95775.53;5136403;27;20047;-66
2024/02/09 10:07:45;;;;;;;1999.90;999.90;;;;;;;17.23;35.78;95777.38;5136077;27;20110;-68
2024/02/09 10:10:14;;;;;;;1999.90;999.90;;;;;;;17.13;36.80;95779.03;5136046;27;20047;-66
2024/02/09 10:12:41;;;;;;;1999.90;999.90;;;;;;;17.10;35.17;95763.41;5135751;27;20039;-66
2024/02/09 10:15:09;;;;;;;1999.90;999.90;;;;;;;17.17;36.36;95761.97;5136186;27;20051;-66
2024/02/09 10:17:39;;;;;;;1999.90;999.90;;;;;;;17.15;36.01;95764.75;5135892;27;20047;-67
2024/02/09 10:20:10;;;;;;;1999.90;999.90;;;;;;;17.21;36.47;95754.63;5135884;27;20481;-68
2024/02/09 10:22:37;;;;;;;1999.90;999.90;;;;;;;17.40;35.74;95744.31;5135833;27;20047;-66
2024/02/09 10:25:05;;;;;;;1999.90;999.90;;;;;;;17.47;35.77;95741.19;5135764;27;20057;-64
2024/02/09 10:27:35;;;;;;;1999.90;999.90;;;;;;;17.48;35.40;95734.94;5135747;27;20134;-66
2024/02/09 10:30:02;;;;;;;1999.90;999.90;;;;;;;17.33;35.73;95729.91;5135641;27;20058;-66
2024/02/09 10:32:32;;;;;;;1999.90;999.90;;;;;;;17.12;35.86;95724.50;5135553;27;20083;-67
2024/02/09 10:34:59;;;;;;;1999.90;999.90;;;;;;;17.09;36.62;95722.09;5135418;27;20142;-64
2024/02/09 10:37:27;;;;;;;1999.90;999.90;;;;;;;17.25;36.24;95722.56;5135426;27;20069;-63
2024/02/09 10:39:54;;;;;;;1999.90;999.90;;;;;;;16.93;35.95;95715.34;5135408;27;20075;-65
2024/02/09 10:42:23;;;;;;;1999.90;999.90;;;;;;;16.86;36.26;95714.94;5135395;27;20075;-66
2024/02/09 10:44:54;;;;;;;1999.90;999.90;;;;;;;16.83;36.25;95714.34;5135282;27;20043;-66
2024/02/09 10:47:26;;;;;;;1999.90;999.90;;;;;;;16.81;36.34;95709.19;5135222;27;20047;-63
2024/02/09 10:49:58;;;;;;;1999.90;999.90;;;;;;;16.77;36.47;95700.66;5135278;27;20100;-67
2024/02/09 10:52:27;;;;;;;1999.90;999.90;;;;;;;16.78;36.18;95699.72;5135257;27;20088;-66
2024/02/09 10:54:56;;;;;;;1999.90;999.90;;;;;;;16.95;36.60;95692.28;5135271;27;20055;-67
2024/02/09 10:57:25;;;;;;;1999.90;999.90;;;;;;;17.18;35.37;95693.16;5134993;27;20050;-64
2024/02/09 10:59:54;;;;;;;1999.90;999.90;;;;;;;17.31;35.27;95689.56;5134999;27;20461;-67
2024/02/09 11:02:22;;;;;;;1999.90;999.90;;;;;;;17.33;34.77;95678.88;5135063;27;20054;-64
2024/02/09 11:04:49;;;;;;;1999.90;999.90;;;;;;;17.32;33.11;95677.19;5134981;27;20126;-64
2024/02/09 11:07:16;;;;;;;1999.90;999.90;;;;;;;17.36;34.08;95674.16;5135002;27;20047;-64
2024/02/09 11:09:44;;;;;;;1999.90;999.90;;;;;;;17.49;33.59;95673.22;5134910;27;20127;-63
2024/02/09 11:12:12;;;;;;;1999.90;999.90;;;;;;;17.49;32.85;95670.56;5134794;27;20047;-64
2024/02/09 11:14:44;;;;;;;1999.90;999.90;;;;;;;17.54;32.57;95649.88;5134768;27;20496;-68
2024/02/09 11:17:16;;;;;;;1999.90;999.90;;;;;;;17.61;32.50;95656.34;5134954;27;20083;-62
2024/02/09 11:19:44;;;;;;;1999.90;999.90;;;;;;;17.62;33.01;95654.53;5135015;27;20129;-62
2024/02/09 11:22:12;;;;;;;1999.90;999.90;;;;;;;17.60;32.34;95654.66;5134265;27;20057;-64
2024/02/09 11:24:39;;;;;;;1999.90;999.90;;;;;;;17.42;32.32;95644.63;5134702;27;20085;-68
2024/02/09 11:27:08;;;;;;;1999.90;999.90;;;;;;;17.11;32.29;95647.06;5134412;27;20051;-65
2024/02/09 11:29:35;;;;;;;1999.90;999.90;;;;;;;17.07;32.66;95640.34;5134567;27;20048;-64
2024/02/09 11:32:05;;;;;;;1999.90;999.90;;;;;;;16.98;32.74;95641.84;5134640;27;20050;-66
2024/02/09 11:34:36;;;;;;;1999.90;999.90;;;;;;;16.95;32.29;95641.25;5134463;27;20050;-66
2024/02/09 11:37:04;;;;;;;1999.90;999.90;;;;;;;16.86;32.78;95635.72;5134384;27;20122;-64
2024/02/09 11:39:33;;;;;;;1999.90;999.90;;;;;;;16.84;33.11;95628.88;5134375;27;20074;-67
2024/02/09 11:42:02;;;;;;;1999.90;999.90;;;;;;;17.02;32.82;95629.25;5134364;27;20404;-67
2024/02/09 11:44:29;;;;;;;1999.90;999.90;;;;;;;17.01;32.93;95623.13;5134280;27;20058;-65
2024/02/09 11:46:57;;;;;;;1999.90;999.90;;;;;;;17.12;32.67;95630.22;5134411;27;20043;-65
2024/02/09 11:49:26;;;;;;;1999.90;999.90;;;;;;;17.25;32.88;95630.09;5134470;27;20182;-69
2024/02/09 11:52:02;;;;;;;1999.90;999.90;;;;;;;17.30;31.93;95635.00;5134280;27;20045;-66
2024/02/09 11:54:31;;;;;;;1999.90;999.90;;;;;;;17.12;31.95;95626.75;5134056;27;20047;-63
2024/02/09 11:56:59;;;;;;;1999.90;999.90;;;;;;;16.96;33.03;95617.38;5133902;27;20043;-68
2024/02/09 11:59:29;;;;;;;1999.90;999.90;;;;;;;17.04;32.08;95619.41;5134170;27;20485;-69
2024/02/09 12:01:56;;;;;;;1999.90;999.90;;;;;;;17.10;32.62;95613.66;5134106;27;20081;-64
2024/02/09 12:04:24;;;;;;;1999.90;999.90;;;;;;;17.26;32.59;95612.44;5134261;27;20063;-66
2024/02/09 12:06:52;;;;;;;1999.90;999.90;;;;;;;17.27;31.98;95599.09;5133928;27;20074;-69
2024/02/09 12:09:21;;;;;;;1999.90;999.90;;;;;;;17.21;31.46;95599.59;5134082;27;20415;-66
2024/02/09 12:11:48;;;;;;;1999.90;999.90;;;;;;;17.30;31.71;95603.31;5134101;27;20047;-66
2024/02/09 12:14:15;;;;;;;1999.90;999.90;;;;;;;17.24;32.03;95595.84;5134038;27;20044;-65
2024/02/09 12:16:42;;;;;;;1999.90;999.90;;;;;;;17.21;32.16;95598.75;5133921;27;20047;-64
2024/02/09 12:19:10;;;;;;;1999.90;999.90;;;;;;;17.26;32.50;95594.78;5133954;27;20635;-66
2024/02/09 12:21:37;;;;;;;1999.90;999.90;;;;;;;17.23;32.20;95595.03;5133906;27;20058;-63
2024/02/09 12:24:06;;;;;;;1999.90;999.90;;;;;;;17.07;32.56;95592.78;5133887;27;20051;-67
2024/02/09 12:26:37;;;;;;;1999.90;999.90;;;;;;;16.86;33.23;95592.66;5133845;27;20051;-69
2024/02/09 12:29:11;;;;;;;1999.90;999.90;;;;;;;16.82;32.74;95588.56;5133820;27;20047;-65
2024/02/09 12:31:40;;;;;;;1999.90;999.90;;;;;;;16.86;32.59;95592.66;5133872;27;20039;-65
2024/02/09 12:34:08;;;;;;;1999.90;999.90;;;;;;;16.83;32.26;95591.09;5135045;27;20054;-67
2024/02/09 12:36:36;;;;;;;1999.90;999.90;;;;;;;16.78;32.40;95594.09;5137859;27;20504;-64
2024/02/09 12:39:05;;;;;;;1999.90;999.90;;;;;;;16.78;32.66;95588.81;5137797;27;20047;-66
2024/02/09 12:41:36;;;;;;;1999.90;999.90;;;;;;;16.72;32.30;95589.28;5137820;27;20071;-66
2024/02/09 12:44:05;;;;;;;1999.90;999.90;;;;;;;16.71;32.38;95592.03;5137726;27;20043;-67
2024/02/09 12:46:32;;;;;;;1999.90;999.90;;;;;;;16.73;32.15;95595.38;5137741;27;20051;-65
2024/02/09 12:49:00;;;;;;;1999.90;999.90;;;;;;;16.79;32.21;95582.56;5138027;27;20043;-64
2024/02/09 12:51:29;;;;;;;1999.90;999.90;;;;;;;16.85;31.96;95577.75;5137973;27;20130;-65
2024/02/09 12:53:57;;;;;;;1999.90;999.90;;;;;;;16.84;31.72;95574.28;5137546;27;20054;-67